createdAt,value
2019-05-18T00:00:32.038Z,11.70
2019-05-18T00:03:02.479Z,11.60
2019-05-18T00:05:32.499Z,11.60
2019-05-18T00:08:03.119Z,11.50
2019-05-18T00:10:33.235Z,11.40
2019-05-18T00:13:03.361Z,11.40
2019-05-18T00:15:33.505Z,11.30
2019-05-18T00:18:04.003Z,11.20
2019-05-18T00:20:34.260Z,11.20
2019-05-18T00:23:04.523Z,11.20
2019-05-18T00:25:34.815Z,11.10
2019-05-18T00:28:04.687Z,11.00
2019-05-18T00:30:34.951Z,11.00
2019-05-18T00:33:05.701Z,10.90
2019-05-18T00:35:35.798Z,10.90
2019-05-18T00:38:06.213Z,10.90
2019-05-18T00:40:36.459Z,10.90
2019-05-18T00:43:06.474Z,10.80
2019-05-18T00:45:36.685Z,10.80
2019-05-18T00:48:08.396Z,10.80
2019-05-18T00:50:38.457Z,10.70
2019-05-18T00:53:08.796Z,10.60
2019-05-18T00:55:38.869Z,10.50
2019-05-18T00:58:09.141Z,10.50
2019-05-18T01:00:39.446Z,10.50
2019-05-18T01:03:09.971Z,10.40
2019-05-18T01:05:39.989Z,10.30
2019-05-18T01:08:10.314Z,10.30
2019-05-18T01:10:40.774Z,10.30
2019-05-18T01:13:10.781Z,10.30
2019-05-18T01:15:41.005Z,10.30
2019-05-18T01:18:11.336Z,10.20
2019-05-18T01:20:43.051Z,10.20
2019-05-18T01:23:13.592Z,10.20
2019-05-18T01:25:44.100Z,10.20
2019-05-18T01:28:14.255Z,10.10
2019-05-18T01:30:44.724Z,10.10
2019-05-18T01:33:14.774Z,10.10
2019-05-18T01:35:45.202Z,10.10
2019-05-18T01:38:15.786Z,10.10
2019-05-18T01:40:45.944Z,10.00
2019-05-18T01:43:16.068Z,9.90
2019-05-18T01:45:46.333Z,9.90
2019-05-18T01:48:16.457Z,9.90
2019-05-18T01:50:47.096Z,9.90
2019-05-18T01:53:17.421Z,9.90
2019-05-18T01:55:47.405Z,9.80
2019-05-18T01:58:17.747Z,9.70
2019-05-18T02:00:48.347Z,9.60
2019-05-18T02:03:18.559Z,9.60
2019-05-18T02:05:48.585Z,9.50
2019-05-18T02:08:18.639Z,9.60
2019-05-18T02:10:49.075Z,9.40
2019-05-18T02:13:19.007Z,9.40
2019-05-18T02:15:49.983Z,9.40
2019-05-18T02:18:28.690Z,9.40
2019-05-18T02:20:51.801Z,9.30
2019-05-18T02:23:22.083Z,9.30
2019-05-18T02:25:52.187Z,9.30
2019-05-18T02:28:22.451Z,9.20
2019-05-18T02:30:53.225Z,9.30
2019-05-18T02:33:23.191Z,9.30
2019-05-18T02:35:53.279Z,9.40
2019-05-18T02:38:23.879Z,9.30
2019-05-18T02:40:53.944Z,9.30
2019-05-18T02:43:24.189Z,9.30
2019-05-18T02:45:54.269Z,9.30
2019-05-18T02:48:24.838Z,9.30
2019-05-18T02:50:55.147Z,9.20
2019-05-18T02:53:25.521Z,9.00
2019-05-18T02:55:55.502Z,9.00
2019-05-18T02:58:25.660Z,9.00
2019-05-18T03:00:55.587Z,9.10
2019-05-18T03:03:26.273Z,9.00
2019-05-18T03:05:56.879Z,9.00
2019-05-18T03:08:27.343Z,9.00
2019-05-18T03:10:57.589Z,8.90
2019-05-18T03:13:27.781Z,8.90
2019-05-18T03:15:57.886Z,8.90
2019-05-18T03:18:28.627Z,8.80
2019-05-18T03:20:58.855Z,8.80
2019-05-18T03:23:29.119Z,8.80
2019-05-18T03:25:59.204Z,8.80
2019-05-18T03:28:29.399Z,8.90
2019-05-18T03:30:59.409Z,8.90
2019-05-18T03:33:30.658Z,8.80
2019-05-18T03:36:01.161Z,8.70
2019-05-18T03:38:31.625Z,8.70
2019-05-18T03:41:02.171Z,8.60
2019-05-18T03:43:32.298Z,8.60
2019-05-18T03:46:02.866Z,8.60
2019-05-18T03:48:34.395Z,8.50
2019-05-18T03:51:04.704Z,8.50
2019-05-18T03:53:35.595Z,8.60
2019-05-18T03:56:05.891Z,8.60
2019-05-18T03:58:36.480Z,8.60
2019-05-18T04:01:06.749Z,8.60
2019-05-18T04:03:37.310Z,8.60
2019-05-18T04:06:07.362Z,8.60
2019-05-18T04:08:38.930Z,8.50
2019-05-18T04:11:09.101Z,8.50
2019-05-18T04:13:39.389Z,8.50
2019-05-18T04:16:09.599Z,8.50
2019-05-18T04:18:39.602Z,8.60
2019-05-18T04:21:09.644Z,8.60
2019-05-18T04:23:40.283Z,8.60
2019-05-18T04:26:10.357Z,8.60
2019-05-18T04:28:40.266Z,8.60
2019-05-18T04:31:10.962Z,8.60
2019-05-18T04:33:40.837Z,8.60
2019-05-18T04:36:10.918Z,8.60
2019-05-18T04:38:41.749Z,8.70
2019-05-18T04:41:11.892Z,8.60
2019-05-18T04:43:41.888Z,8.70
2019-05-18T04:46:12.796Z,8.60
2019-05-18T04:48:43.133Z,8.70
2019-05-18T04:51:13.447Z,8.70
2019-05-18T04:53:44.630Z,8.70
2019-05-18T04:56:14.776Z,8.80
2019-05-18T04:58:45.029Z,8.90
2019-05-18T05:01:15.311Z,8.90
2019-05-18T05:03:45.853Z,8.90
2019-05-18T05:06:15.800Z,9.00
2019-05-18T05:08:46.080Z,9.00
2019-05-18T05:11:16.018Z,9.10
2019-05-18T05:13:46.451Z,9.10
2019-05-18T05:16:17.131Z,9.20
2019-05-18T05:18:47.747Z,9.30
2019-05-18T05:21:19.636Z,9.40
2019-05-18T05:23:49.936Z,9.60
2019-05-18T05:26:20.430Z,9.70
2019-05-18T05:28:50.460Z,9.90
2019-05-18T05:31:20.936Z,10.20
2019-05-18T05:33:52.544Z,10.40
2019-05-18T05:36:22.679Z,10.60
2019-05-18T05:38:52.836Z,10.90
2019-05-18T05:41:23.098Z,11.10
2019-05-18T05:43:53.228Z,11.40
2019-05-18T05:46:23.582Z,11.60
2019-05-18T05:48:53.679Z,11.80
2019-05-18T05:51:24.226Z,12.00
2019-05-18T05:53:54.946Z,12.20
2019-05-18T05:56:24.967Z,12.40
2019-05-18T05:58:55.430Z,12.70
2019-05-18T06:01:25.667Z,12.90
2019-05-18T06:03:55.822Z,12.90
2019-05-18T06:06:26.285Z,13.20
2019-05-18T06:08:56.543Z,13.20
2019-05-18T06:11:26.588Z,13.40
2019-05-18T06:13:57.137Z,13.50
2019-05-18T06:16:27.407Z,13.80
2019-05-18T06:18:57.263Z,14.00
2019-05-18T06:21:27.179Z,13.80
2019-05-18T06:23:58.991Z,14.00
2019-05-18T06:26:28.955Z,14.20
2019-05-18T06:28:59.127Z,14.40
2019-05-18T06:31:29.187Z,14.80
2019-05-18T06:33:59.506Z,15.10
2019-05-18T06:36:29.683Z,15.10
2019-05-18T06:39:00.246Z,15.30
2019-05-18T06:41:30.210Z,15.50
2019-05-18T06:44:00.340Z,15.30
2019-05-18T06:46:30.759Z,15.00
2019-05-18T06:49:01.126Z,14.70
2019-05-18T06:51:31.188Z,15.00
2019-05-18T06:54:01.946Z,15.20
2019-05-18T06:56:33.386Z,15.80
2019-05-18T06:59:03.891Z,16.10
2019-05-18T07:01:34.256Z,16.40
2019-05-18T07:04:04.452Z,16.50
2019-05-18T07:06:34.676Z,16.70
2019-05-18T07:09:13.263Z,17.10
2019-05-18T07:11:39.122Z,17.60
2019-05-18T07:14:09.270Z,17.50
2019-05-18T07:16:40.047Z,16.90
2019-05-18T07:19:15.026Z,17.30
2019-05-18T07:21:51.011Z,17.60
2019-05-18T07:24:21.251Z,17.30
2019-05-18T07:26:51.352Z,18.00
2019-05-18T07:29:21.537Z,18.30
2019-05-18T07:31:52.311Z,17.80
2019-05-18T07:34:27.528Z,17.90
2019-05-18T07:37:00.845Z,17.50
2019-05-18T07:39:36.094Z,18.20
2019-05-18T07:42:05.707Z,19.00
2019-05-18T07:44:35.576Z,19.00
2019-05-18T07:47:05.831Z,18.40
2019-05-18T07:49:36.117Z,18.10
2019-05-18T07:52:06.119Z,18.70
2019-05-18T07:54:36.424Z,19.80
2019-05-18T07:57:06.894Z,20.40
2019-05-18T07:59:36.846Z,20.50
2019-05-18T08:02:08.808Z,20.30
2019-05-18T08:04:39.833Z,20.80
2019-05-18T08:07:09.888Z,21.70
2019-05-18T08:09:40.996Z,22.40
2019-05-18T08:12:11.095Z,21.90
2019-05-18T08:14:41.226Z,21.50
2019-05-18T08:17:14.555Z,21.30
2019-05-18T08:19:48.957Z,20.80
2019-05-18T08:22:20.241Z,20.90
2019-05-18T08:24:51.153Z,21.60
2019-05-18T08:27:21.378Z,21.90
2019-05-18T08:29:51.819Z,21.30
2019-05-18T08:32:21.905Z,21.60
2019-05-18T08:34:52.355Z,21.10
2019-05-18T08:37:22.717Z,20.10
2019-05-18T08:39:52.893Z,21.50
2019-05-18T08:42:24.659Z,21.30
2019-05-18T08:44:55.191Z,21.40
2019-05-18T08:47:25.412Z,21.50
2019-05-18T08:49:55.950Z,21.00
2019-05-18T08:52:26.448Z,22.00
2019-05-18T08:54:56.728Z,21.80
2019-05-18T08:57:26.706Z,22.50
2019-05-18T08:59:56.907Z,21.30
2019-05-18T09:02:27.319Z,21.40
2019-05-18T09:04:57.905Z,22.50
2019-05-18T09:07:27.936Z,22.10
2019-05-18T09:09:58.241Z,21.90
2019-05-18T09:12:28.972Z,22.80
2019-05-18T09:14:58.939Z,22.90
2019-05-18T09:17:30.305Z,23.10
2019-05-18T09:20:01.382Z,22.60
2019-05-18T09:22:31.370Z,22.00
2019-05-18T09:25:01.577Z,22.60
2019-05-18T09:27:32.050Z,23.00
2019-05-18T09:30:02.486Z,23.20
2019-05-18T09:32:32.555Z,23.20
2019-05-18T09:35:02.825Z,23.30
2019-05-18T09:37:33.286Z,22.80
2019-05-18T09:40:03.667Z,22.60
2019-05-18T09:42:33.584Z,23.40
2019-05-18T09:45:05.661Z,23.60
2019-05-18T09:47:35.540Z,24.10
2019-05-18T09:50:07.296Z,23.50
2019-05-18T09:52:46.200Z,22.80
2019-05-18T09:55:09.881Z,23.80
2019-05-18T09:57:40.183Z,25.50
2019-05-18T10:00:11.248Z,24.60
2019-05-18T10:02:41.924Z,24.90
2019-05-18T10:05:15.094Z,24.70
2019-05-18T10:07:45.477Z,25.10
2019-05-18T10:10:15.976Z,24.30
2019-05-18T10:12:51.247Z,23.40
2019-05-18T10:15:21.543Z,23.50
2019-05-18T10:17:51.632Z,24.10
2019-05-18T10:20:22.281Z,24.10
2019-05-18T10:23:04.120Z,24.80
2019-05-18T10:25:24.260Z,24.60
2019-05-18T10:27:54.899Z,24.50
2019-05-18T10:30:24.970Z,24.30
2019-05-18T10:32:55.060Z,25.00
2019-05-18T10:35:25.268Z,23.70
2019-05-18T10:37:56.775Z,23.30
2019-05-18T10:40:27.032Z,24.70
2019-05-18T10:42:57.577Z,24.20
2019-05-18T10:45:27.856Z,23.60
2019-05-18T10:47:59.797Z,24.90
2019-05-18T10:50:30.185Z,24.40
2019-05-18T10:53:00.302Z,25.10
2019-05-18T10:55:30.643Z,24.10
2019-05-18T10:58:00.854Z,23.90
2019-05-18T11:00:30.872Z,24.60
2019-05-18T11:03:01.615Z,25.10
2019-05-18T11:05:31.697Z,24.00
2019-05-18T11:08:01.888Z,24.80
2019-05-18T11:10:32.280Z,24.50
2019-05-18T11:13:02.665Z,24.70
2019-05-18T11:15:32.824Z,25.30
2019-05-18T11:18:03.600Z,25.40
2019-05-18T11:20:33.890Z,25.60
2019-05-18T11:23:04.226Z,25.40
2019-05-18T11:25:35.044Z,25.30
2019-05-18T11:28:04.993Z,25.50
2019-05-18T11:30:35.056Z,25.20
2019-05-18T11:33:05.519Z,26.90
2019-05-18T11:35:35.609Z,25.70
2019-05-18T11:38:06.160Z,25.70
2019-05-18T11:40:36.696Z,27.20
2019-05-18T11:43:06.699Z,27.20
2019-05-18T11:45:36.690Z,27.20
2019-05-18T11:48:06.884Z,28.20
2019-05-18T11:50:41.213Z,29.10
2019-05-18T11:53:20.836Z,28.90
2019-05-18T11:55:51.302Z,28.80
2019-05-18T11:58:22.244Z,28.90
2019-05-18T12:00:52.487Z,28.90
2019-05-18T12:03:24.979Z,28.70
2019-05-18T12:06:03.410Z,27.70
2019-05-18T12:08:33.342Z,27.00
2019-05-18T12:11:05.563Z,27.30
2019-05-18T12:13:36.140Z,26.10
2019-05-18T12:16:07.405Z,26.90
2019-05-18T12:18:43.819Z,26.50
2019-05-18T12:21:13.919Z,27.10
2019-05-18T12:23:43.955Z,27.30
2019-05-18T12:26:14.554Z,28.50
2019-05-18T12:28:58.426Z,27.30
2019-05-18T12:31:28.659Z,29.00
2019-05-18T12:34:04.311Z,29.40
2019-05-18T12:36:37.612Z,29.80
2019-05-18T12:39:15.613Z,30.00
2019-05-18T12:41:55.472Z,30.40
2019-05-18T12:44:25.849Z,30.80
2019-05-18T12:46:57.376Z,30.10
2019-05-18T12:49:27.650Z,29.20
2019-05-18T12:51:58.016Z,27.50
2019-05-18T12:54:34.005Z,25.80
2019-05-18T12:57:00.137Z,25.40
2019-05-18T12:59:30.708Z,26.30
2019-05-18T13:02:01.015Z,24.80
2019-05-18T13:04:30.952Z,25.20
2019-05-18T13:07:01.093Z,25.00
2019-05-18T13:09:31.828Z,25.10
2019-05-18T13:12:01.866Z,25.00
2019-05-18T13:14:36.490Z,25.60
2019-05-18T13:17:06.614Z,26.30
2019-05-18T13:19:36.994Z,26.20
2019-05-18T13:22:07.259Z,25.80
2019-05-18T13:24:45.276Z,27.40
2019-05-18T13:27:17.001Z,28.50
2019-05-18T13:29:50.049Z,28.90
2019-05-18T13:32:23.798Z,29.40
2019-05-18T13:34:58.805Z,29.40
2019-05-18T13:37:30.049Z,28.90
2019-05-18T13:40:03.618Z,28.00
2019-05-18T13:42:42.809Z,27.00
2019-05-18T13:45:14.286Z,27.30
2019-05-18T13:47:45.020Z,26.60
2019-05-18T13:50:24.837Z,26.30
2019-05-18T13:52:55.099Z,26.50
2019-05-18T13:55:25.795Z,25.20
2019-05-18T13:57:55.846Z,24.60
2019-05-18T14:00:25.978Z,24.20
2019-05-18T14:02:56.238Z,23.90
2019-05-18T14:05:26.331Z,24.40
2019-05-18T14:07:56.692Z,25.00
2019-05-18T14:10:29.552Z,25.30
2019-05-18T14:12:59.564Z,25.40
2019-05-18T14:15:29.814Z,25.50
2019-05-18T14:18:00.395Z,25.80
2019-05-18T14:20:30.488Z,25.80
2019-05-18T14:23:00.604Z,25.80
2019-05-18T14:25:30.737Z,25.70
2019-05-18T14:28:01.724Z,26.00
2019-05-18T14:30:32.387Z,26.20
2019-05-18T14:33:02.760Z,26.70
2019-05-18T14:35:33.622Z,26.70
2019-05-18T14:38:04.049Z,27.00
2019-05-18T14:40:34.515Z,26.60
2019-05-18T14:43:05.222Z,25.50
2019-05-18T14:45:35.377Z,25.60
2019-05-18T14:48:10.186Z,26.20
2019-05-18T14:50:40.618Z,25.00
2019-05-18T14:53:11.215Z,24.70
2019-05-18T14:55:43.376Z,25.10
2019-05-18T14:58:13.519Z,24.80
2019-05-18T15:00:43.758Z,24.20
2019-05-18T15:03:13.931Z,24.60
2019-05-18T15:05:43.895Z,25.00
2019-05-18T15:08:14.234Z,24.70
2019-05-18T15:10:47.223Z,23.60
2019-05-18T15:13:17.170Z,24.20
2019-05-18T15:15:47.412Z,24.40
2019-05-18T15:18:17.807Z,24.70
2019-05-18T15:20:47.970Z,24.60
2019-05-18T15:23:18.463Z,25.60
2019-05-18T15:25:51.097Z,25.60
2019-05-18T15:28:20.778Z,26.20
2019-05-18T15:30:50.692Z,26.70
2019-05-18T15:33:21.016Z,26.80
2019-05-18T15:35:51.074Z,26.20
2019-05-18T15:38:22.338Z,26.10
2019-05-18T15:40:52.674Z,25.60
2019-05-18T15:43:23.028Z,25.40
2019-05-18T15:45:52.979Z,25.70
2019-05-18T15:48:23.426Z,25.40
2019-05-18T15:50:53.392Z,25.50
2019-05-18T15:53:23.283Z,25.50
2019-05-18T15:56:05.317Z,25.50
2019-05-18T15:58:25.503Z,25.30
2019-05-18T16:00:55.555Z,25.10
2019-05-18T16:03:25.960Z,24.70
2019-05-18T16:05:56.203Z,24.60
2019-05-18T16:08:26.828Z,24.60
2019-05-18T16:10:57.288Z,24.30
2019-05-18T16:13:27.641Z,24.30
2019-05-18T16:15:58.073Z,24.40
2019-05-18T16:18:28.171Z,24.60
2019-05-18T16:20:58.494Z,24.90
2019-05-18T16:23:28.480Z,24.90
2019-05-18T16:25:59.104Z,24.60
2019-05-18T16:28:29.096Z,25.10
2019-05-18T16:30:59.296Z,25.40
2019-05-18T16:33:29.434Z,25.80
2019-05-18T16:35:59.636Z,25.90
2019-05-18T16:38:29.976Z,25.80
2019-05-18T16:41:00.104Z,25.90
2019-05-18T16:43:30.172Z,25.60
2019-05-18T16:46:00.092Z,25.60
2019-05-18T16:48:30.119Z,25.30
2019-05-18T16:51:00.100Z,24.90
2019-05-18T16:53:30.311Z,24.80
2019-05-18T16:56:00.352Z,24.50
2019-05-18T16:58:30.697Z,24.30
2019-05-18T17:01:01.130Z,24.20
2019-05-18T17:03:31.461Z,24.00
2019-05-18T17:06:02.372Z,24.20
2019-05-18T17:08:32.688Z,24.30
2019-05-18T17:11:03.054Z,24.30
2019-05-18T17:13:34.031Z,24.40
2019-05-18T17:16:04.159Z,24.30
2019-05-18T17:18:34.278Z,24.40
2019-05-18T17:21:05.574Z,24.00
2019-05-18T17:23:35.660Z,23.70
2019-05-18T17:26:06.126Z,23.70
2019-05-18T17:28:36.824Z,23.90
2019-05-18T17:31:06.947Z,23.50
2019-05-18T17:33:37.174Z,23.20
2019-05-18T17:36:07.444Z,23.10
2019-05-18T17:38:38.042Z,23.10
2019-05-18T17:41:08.879Z,23.10
2019-05-18T17:43:39.002Z,22.90
2019-05-18T17:46:09.325Z,22.90
2019-05-18T17:48:39.572Z,22.80
2019-05-18T17:51:09.638Z,22.60
2019-05-18T17:53:40.483Z,22.60
2019-05-18T17:56:11.879Z,22.50
2019-05-18T17:58:41.927Z,22.60
2019-05-18T18:01:12.248Z,22.50
2019-05-18T18:03:42.634Z,22.40
2019-05-18T18:06:12.575Z,22.20
2019-05-18T18:08:43.135Z,22.10
2019-05-18T18:11:13.490Z,22.20
2019-05-18T18:13:43.587Z,22.20
2019-05-18T18:16:13.539Z,22.00
2019-05-18T18:18:43.724Z,22.00
2019-05-18T18:21:14.194Z,21.80
2019-05-18T18:23:44.286Z,21.80
2019-05-18T18:26:15.168Z,21.60
2019-05-18T18:28:45.388Z,21.50
2019-05-18T18:31:15.473Z,21.40
2019-05-18T18:33:45.679Z,21.60
2019-05-18T18:36:15.990Z,21.50
2019-05-18T18:38:46.195Z,21.60
2019-05-18T18:41:16.629Z,21.40
2019-05-18T18:43:49.151Z,21.50
2019-05-18T18:46:19.931Z,21.50
2019-05-18T18:48:50.091Z,21.50
2019-05-18T18:51:20.019Z,21.40
2019-05-18T18:53:50.610Z,21.30
2019-05-18T18:56:20.874Z,21.30
2019-05-18T18:58:51.151Z,21.10
2019-05-18T19:01:21.404Z,21.10
2019-05-18T19:03:51.534Z,21.00
2019-05-18T19:06:21.891Z,20.90
2019-05-18T19:08:52.199Z,20.80
2019-05-18T19:11:22.369Z,20.70
2019-05-18T19:13:52.320Z,20.60
2019-05-18T19:16:22.760Z,20.50
2019-05-18T19:18:53.309Z,20.30
2019-05-18T19:21:23.698Z,20.30
2019-05-18T19:23:54.132Z,20.20
2019-05-18T19:26:24.239Z,20.10
2019-05-18T19:28:54.546Z,19.90
2019-05-18T19:31:24.598Z,19.70
2019-05-18T19:33:54.727Z,19.70
2019-05-18T19:36:24.748Z,19.60
2019-05-18T19:38:57.650Z,19.60
2019-05-18T19:41:27.814Z,19.40
2019-05-18T19:43:57.746Z,19.30
2019-05-18T19:46:28.300Z,19.20
2019-05-18T19:48:58.269Z,19.20
2019-05-18T19:51:28.367Z,19.00
2019-05-18T19:53:58.518Z,19.00
2019-05-18T19:56:28.538Z,18.90
2019-05-18T19:58:58.559Z,18.70
2019-05-18T20:01:29.438Z,18.70
2019-05-18T20:03:59.348Z,18.60
2019-05-18T20:06:29.327Z,18.50
2019-05-18T20:08:59.553Z,18.30
2019-05-18T20:11:29.616Z,18.30
2019-05-18T20:13:59.608Z,18.10
2019-05-18T20:16:30.115Z,18.10
2019-05-18T20:19:00.251Z,18.00
2019-05-18T20:21:30.294Z,18.10
2019-05-18T20:24:00.447Z,18.10
2019-05-18T20:26:30.838Z,17.90
2019-05-18T20:29:00.736Z,17.80
2019-05-18T20:31:30.874Z,17.60
2019-05-18T20:34:01.153Z,17.50
2019-05-18T20:36:31.320Z,17.50
2019-05-18T20:39:01.663Z,17.40
2019-05-18T20:41:32.472Z,17.30
2019-05-18T20:44:02.539Z,17.30
2019-05-18T20:46:33.342Z,17.20
2019-05-18T20:49:03.302Z,17.20
2019-05-18T20:51:33.223Z,17.10
2019-05-18T20:54:03.727Z,17.00
2019-05-18T20:56:35.407Z,17.00
2019-05-18T20:59:06.545Z,17.00
2019-05-18T21:01:37.891Z,16.90
2019-05-18T21:04:08.914Z,16.90
2019-05-18T21:06:40.014Z,16.80
2019-05-18T21:09:11.295Z,16.80
2019-05-18T21:11:44.391Z,16.70
2019-05-18T21:14:14.411Z,16.60
2019-05-18T21:16:45.160Z,16.60
2019-05-18T21:19:15.016Z,16.50
2019-05-18T21:21:45.247Z,16.50
2019-05-18T21:24:15.380Z,16.40
2019-05-18T21:26:46.073Z,16.40
2019-05-18T21:29:16.146Z,16.30
2019-05-18T21:31:46.299Z,16.20
2019-05-18T21:34:18.926Z,16.10
2019-05-18T21:36:48.474Z,16.10
2019-05-18T21:39:18.552Z,16.10
2019-05-18T21:41:49.016Z,16.00
2019-05-18T21:44:19.096Z,15.90
2019-05-18T21:46:49.406Z,15.80
2019-05-18T21:49:19.520Z,15.80
2019-05-18T21:51:49.460Z,15.70
2019-05-18T21:54:19.450Z,15.60
2019-05-18T21:56:50.203Z,15.60
2019-05-18T21:59:20.508Z,15.60
2019-05-18T22:01:50.537Z,15.70
2019-05-18T22:04:20.798Z,15.60
2019-05-18T22:06:50.906Z,15.50
2019-05-18T22:09:21.052Z,15.40
2019-05-18T22:11:52.661Z,15.30
2019-05-18T22:14:22.779Z,15.20
2019-05-18T22:16:52.965Z,15.20
2019-05-18T22:19:23.467Z,15.10
2019-05-18T22:21:53.607Z,15.10
2019-05-18T22:24:24.295Z,15.00
2019-05-18T22:26:54.650Z,15.10
2019-05-18T22:29:24.831Z,15.00
2019-05-18T22:31:55.053Z,14.90
2019-05-18T22:34:25.032Z,14.80
2019-05-18T22:36:55.119Z,14.70
2019-05-18T22:39:26.638Z,14.70
2019-05-18T22:41:57.497Z,14.70
2019-05-18T22:44:27.648Z,14.60
2019-05-18T22:46:57.807Z,14.60
2019-05-18T22:49:28.458Z,14.60
2019-05-18T22:51:58.765Z,14.50
2019-05-18T22:54:29.041Z,14.40
2019-05-18T22:56:59.038Z,14.40
2019-05-18T22:59:29.540Z,14.40
2019-05-18T23:01:59.776Z,14.30
2019-05-18T23:04:29.728Z,14.30
2019-05-18T23:06:59.948Z,14.20
2019-05-18T23:09:30.138Z,14.30
2019-05-18T23:12:00.209Z,14.20
2019-05-18T23:14:30.605Z,14.20
2019-05-18T23:17:00.996Z,14.10
2019-05-18T23:19:31.545Z,14.00
2019-05-18T23:22:02.468Z,13.90
2019-05-18T23:24:36.767Z,13.90
2019-05-18T23:27:07.326Z,13.90
2019-05-18T23:29:39.219Z,13.80
2019-05-18T23:32:10.168Z,13.80
2019-05-18T23:34:41.233Z,13.90
2019-05-18T23:37:12.658Z,13.80
2019-05-18T23:39:44.290Z,13.70
2019-05-18T23:42:15.463Z,13.70
2019-05-18T23:44:47.335Z,13.60
2019-05-18T23:47:17.700Z,13.50
2019-05-18T23:49:48.856Z,13.50
2019-05-18T23:52:20.130Z,13.40
2019-05-18T23:54:51.991Z,13.40
2019-05-18T23:57:23.035Z,13.40
2019-05-18T23:59:56.276Z,13.40
